sensor_id;sensor_type;location;lat;lon;timestamp;temperature;humidity
7842;DHT22;3966;51.052;13.820;2023-04-28T00:01:09;5.20;99.90
7842;DHT22;3966;51.052;13.820;2023-04-28T00:03:35;5.30;99.90
7842;DHT22;3966;51.052;13.820;2023-04-28T00:06:01;5.30;99.90
7842;DHT22;3966;51.052;13.820;2023-04-28T00:08:27;5.20;99.90
7842;DHT22;3966;51.052;13.820;2023-04-28T00:10:52;5.30;99.90
7842;DHT22;3966;51.052;13.820;2023-04-28T00:13:18;5.30;99.90
7842;DHT22;3966;51.052;13.820;2023-04-28T00:15:44;5.30;99.90
7842;DHT22;3966;51.052;13.820;2023-04-28T00:18:09;5.30;99.90
7842;DHT22;3966;51.052;13.820;2023-04-28T00:20:35;5.30;99.90
7842;DHT22;3966;51.052;13.820;2023-04-28T00:23:01;5.30;99.90
7842;DHT22;3966;51.052;13.820;2023-04-28T00:25:26;5.20;99.90
7842;DHT22;3966;51.052;13.820;2023-04-28T00:27:52;5.20;99.90
7842;DHT22;3966;51.052;13.820;2023-04-28T00:30:18;5.20;99.90
7842;DHT22;3966;51.052;13.820;2023-04-28T00:32:43;5.10;99.90
7842;DHT22;3966;51.052;13.820;2023-04-28T00:35:09;5.10;99.90
7842;DHT22;3966;51.052;13.820;2023-04-28T00:37:36;5.10;99.90
7842;DHT22;3966;51.052;13.820;2023-04-28T00:40:02;5.10;99.90
7842;DHT22;3966;51.052;13.820;2023-04-28T00:42:29;5.10;99.90
7842;DHT22;3966;51.052;13.820;2023-04-28T00:44:55;5.10;99.90
7842;DHT22;3966;51.052;13.820;2023-04-28T00:47:21;5.10;99.90
7842;DHT22;3966;51.052;13.820;2023-04-28T00:49:47;5.00;99.90
7842;DHT22;3966;51.052;13.820;2023-04-28T00:52:14;5.00;99.90
7842;DHT22;3966;51.052;13.820;2023-04-28T00:54:40;5.00;99.90
7842;DHT22;3966;51.052;13.820;2023-04-28T00:57:08;4.90;99.90
7842;DHT22;3966;51.052;13.820;2023-04-28T00:59:35;4.90;99.90
7842;DHT22;3966;51.052;13.820;2023-04-28T01:02:01;4.90;99.90
7842;DHT22;3966;51.052;13.820;2023-04-28T01:04:28;4.90;99.90
7842;DHT22;3966;51.052;13.820;2023-04-28T01:06:55;4.90;99.90
7842;DHT22;3966;51.052;13.820;2023-04-28T01:09:21;4.80;99.90
7842;DHT22;3966;51.052;13.820;2023-04-28T01:11:46;4.80;99.90
7842;DHT22;3966;51.052;13.820;2023-04-28T01:14:12;4.70;99.90
7842;DHT22;3966;51.052;13.820;2023-04-28T01:16:38;4.60;99.90
7842;DHT22;3966;51.052;13.820;2023-04-28T01:19:14;4.70;99.90
7842;DHT22;3966;51.052;13.820;2023-04-28T01:21:41;4.70;99.90
7842;DHT22;3966;51.052;13.820;2023-04-28T01:24:07;4.80;99.90
7842;DHT22;3966;51.052;13.820;2023-04-28T01:26:32;4.80;99.90
7842;DHT22;3966;51.052;13.820;2023-04-28T01:28:58;4.80;99.90
7842;DHT22;3966;51.052;13.820;2023-04-28T01:31:24;4.80;99.90
7842;DHT22;3966;51.052;13.820;2023-04-28T01:33:50;4.80;99.90
7842;DHT22;3966;51.052;13.820;2023-04-28T01:36:16;4.80;99.90
7842;DHT22;3966;51.052;13.820;2023-04-28T01:38:41;4.70;99.90
7842;DHT22;3966;51.052;13.820;2023-04-28T01:41:07;4.60;99.90
7842;DHT22;3966;51.052;13.820;2023-04-28T01:43:32;4.70;99.90
7842;DHT22;3966;51.052;13.820;2023-04-28T01:45:58;4.60;99.90
7842;DHT22;3966;51.052;13.820;2023-04-28T01:48:24;4.60;99.90
7842;DHT22;3966;51.052;13.820;2023-04-28T01:50:50;4.60;99.90
7842;DHT22;3966;51.052;13.820;2023-04-28T01:53:15;4.60;99.90
7842;DHT22;3966;51.052;13.820;2023-04-28T01:55:45;4.60;99.90
7842;DHT22;3966;51.052;13.820;2023-04-28T01:58:11;4.60;99.90
7842;DHT22;3966;51.052;13.820;2023-04-28T02:00:36;4.60;99.90
7842;DHT22;3966;51.052;13.820;2023-04-28T02:03:02;4.50;99.90
7842;DHT22;3966;51.052;13.820;2023-04-28T02:05:28;4.50;99.90
7842;DHT22;3966;51.052;13.820;2023-04-28T02:07:53;4.50;99.90
7842;DHT22;3966;51.052;13.820;2023-04-28T02:10:19;4.50;99.90
7842;DHT22;3966;51.052;13.820;2023-04-28T02:12:45;4.50;99.90
7842;DHT22;3966;51.052;13.820;2023-04-28T02:15:10;4.50;99.90
7842;DHT22;3966;51.052;13.820;2023-04-28T02:17:36;4.60;99.90
7842;DHT22;3966;51.052;13.820;2023-04-28T02:20:02;4.50;99.90
7842;DHT22;3966;51.052;13.820;2023-04-28T02:22:27;4.50;99.90
7842;DHT22;3966;51.052;13.820;2023-04-28T02:24:53;4.60;99.90
7842;DHT22;3966;51.052;13.820;2023-04-28T02:27:19;4.50;99.90
7842;DHT22;3966;51.052;13.820;2023-04-28T02:29:45;4.60;99.90
7842;DHT22;3966;51.052;13.820;2023-04-28T02:32:11;4.50;99.90
7842;DHT22;3966;51.052;13.820;2023-04-28T02:34:36;4.50;99.90
7842;DHT22;3966;51.052;13.820;2023-04-28T02:37:02;4.60;99.90
7842;DHT22;3966;51.052;13.820;2023-04-28T02:39:28;4.60;99.90
7842;DHT22;3966;51.052;13.820;2023-04-28T02:41:55;4.60;99.90
7842;DHT22;3966;51.052;13.820;2023-04-28T02:44:21;4.60;99.90
7842;DHT22;3966;51.052;13.820;2023-04-28T02:46:46;4.60;99.90
7842;DHT22;3966;51.052;13.820;2023-04-28T02:49:12;4.60;99.90
7842;DHT22;3966;51.052;13.820;2023-04-28T02:51:38;4.60;99.90
7842;DHT22;3966;51.052;13.820;2023-04-28T02:54:04;4.60;99.90
7842;DHT22;3966;51.052;13.820;2023-04-28T02:56:30;4.70;99.90
7842;DHT22;3966;51.052;13.820;2023-04-28T02:58:55;4.70;99.90
7842;DHT22;3966;51.052;13.820;2023-04-28T03:01:22;4.70;99.90
7842;DHT22;3966;51.052;13.820;2023-04-28T03:03:47;4.70;99.90
7842;DHT22;3966;51.052;13.820;2023-04-28T03:06:13;4.70;99.90
7842;DHT22;3966;51.052;13.820;2023-04-28T03:08:39;4.70;99.90
7842;DHT22;3966;51.052;13.820;2023-04-28T03:11:04;4.80;99.90
7842;DHT22;3966;51.052;13.820;2023-04-28T03:13:30;4.80;99.90
7842;DHT22;3966;51.052;13.820;2023-04-28T03:15:56;4.90;99.90
7842;DHT22;3966;51.052;13.820;2023-04-28T03:18:21;4.90;99.90
7842;DHT22;3966;51.052;13.820;2023-04-28T03:20:48;4.90;99.90
7842;DHT22;3966;51.052;13.820;2023-04-28T03:23:14;4.90;99.90
7842;DHT22;3966;51.052;13.820;2023-04-28T03:25:40;5.00;99.90
7842;DHT22;3966;51.052;13.820;2023-04-28T03:28:05;5.00;99.90
7842;DHT22;3966;51.052;13.820;2023-04-28T03:30:31;5.00;99.90
7842;DHT22;3966;51.052;13.820;2023-04-28T03:32:56;4.90;99.90
7842;DHT22;3966;51.052;13.820;2023-04-28T03:35:22;5.00;99.90
7842;DHT22;3966;51.052;13.820;2023-04-28T03:37:48;5.00;99.90
7842;DHT22;3966;51.052;13.820;2023-04-28T03:40:14;4.90;99.90
7842;DHT22;3966;51.052;13.820;2023-04-28T03:42:40;4.90;99.90
7842;DHT22;3966;51.052;13.820;2023-04-28T03:45:06;4.90;99.90
7842;DHT22;3966;51.052;13.820;2023-04-28T03:47:32;4.90;99.90
7842;DHT22;3966;51.052;13.820;2023-04-28T03:49:58;5.00;99.90
7842;DHT22;3966;51.052;13.820;2023-04-28T03:52:24;4.80;99.90
7842;DHT22;3966;51.052;13.820;2023-04-28T03:54:50;4.90;99.90
7842;DHT22;3966;51.052;13.820;2023-04-28T03:57:16;4.90;99.90
7842;DHT22;3966;51.052;13.820;2023-04-28T03:59:41;5.00;99.90
7842;DHT22;3966;51.052;13.820;2023-04-28T04:02:07;5.00;99.90
7842;DHT22;3966;51.052;13.820;2023-04-28T04:04:33;5.00;99.90
7842;DHT22;3966;51.052;13.820;2023-04-28T04:06:59;5.00;99.90
7842;DHT22;3966;51.052;13.820;2023-04-28T04:09:24;5.00;99.90
7842;DHT22;3966;51.052;13.820;2023-04-28T04:11:50;5.00;99.90
7842;DHT22;3966;51.052;13.820;2023-04-28T04:14:16;5.00;99.90
7842;DHT22;3966;51.052;13.820;2023-04-28T04:16:42;5.00;99.90
7842;DHT22;3966;51.052;13.820;2023-04-28T04:19:08;5.10;99.90
7842;DHT22;3966;51.052;13.820;2023-04-28T04:21:33;5.20;99.90
7842;DHT22;3966;51.052;13.820;2023-04-28T04:23:59;5.20;99.90
7842;DHT22;3966;51.052;13.820;2023-04-28T04:26:25;5.20;99.90
7842;DHT22;3966;51.052;13.820;2023-04-28T04:28:51;5.20;99.90
7842;DHT22;3966;51.052;13.820;2023-04-28T04:31:16;5.30;99.90
7842;DHT22;3966;51.052;13.820;2023-04-28T04:33:44;5.40;99.90
7842;DHT22;3966;51.052;13.820;2023-04-28T04:36:09;5.50;99.90
7842;DHT22;3966;51.052;13.820;2023-04-28T04:38:35;5.50;99.90
7842;DHT22;3966;51.052;13.820;2023-04-28T04:41:01;5.60;99.90
7842;DHT22;3966;51.052;13.820;2023-04-28T04:43:26;5.50;99.90
7842;DHT22;3966;51.052;13.820;2023-04-28T04:45:55;5.60;99.90
7842;DHT22;3966;51.052;13.820;2023-04-28T04:48:21;5.60;99.90
7842;DHT22;3966;51.052;13.820;2023-04-28T04:50:47;5.60;99.90
7842;DHT22;3966;51.052;13.820;2023-04-28T04:53:12;5.70;99.90
7842;DHT22;3966;51.052;13.820;2023-04-28T04:55:38;5.70;99.90
7842;DHT22;3966;51.052;13.820;2023-04-28T04:58:03;5.80;99.90
7842;DHT22;3966;51.052;13.820;2023-04-28T05:00:29;5.90;99.90
7842;DHT22;3966;51.052;13.820;2023-04-28T05:02:55;6.00;99.90
7842;DHT22;3966;51.052;13.820;2023-04-28T05:05:21;6.10;99.90
7842;DHT22;3966;51.052;13.820;2023-04-28T05:07:46;6.20;99.90
7842;DHT22;3966;51.052;13.820;2023-04-28T05:10:12;6.20;99.90
7842;DHT22;3966;51.052;13.820;2023-04-28T05:12:38;6.30;99.90
7842;DHT22;3966;51.052;13.820;2023-04-28T05:15:05;6.40;99.90
7842;DHT22;3966;51.052;13.820;2023-04-28T05:17:37;6.40;99.90
7842;DHT22;3966;51.052;13.820;2023-04-28T05:20:03;6.50;99.90
7842;DHT22;3966;51.052;13.820;2023-04-28T05:22:29;6.60;99.90
7842;DHT22;3966;51.052;13.820;2023-04-28T05:24:55;6.70;99.90
7842;DHT22;3966;51.052;13.820;2023-04-28T05:27:21;6.80;99.90
7842;DHT22;3966;51.052;13.820;2023-04-28T05:29:47;6.80;99.90
7842;DHT22;3966;51.052;13.820;2023-04-28T05:32:13;6.80;99.90
7842;DHT22;3966;51.052;13.820;2023-04-28T05:34:38;7.00;99.90
7842;DHT22;3966;51.052;13.820;2023-04-28T05:37:04;7.00;99.90
7842;DHT22;3966;51.052;13.820;2023-04-28T05:39:29;7.10;99.90
7842;DHT22;3966;51.052;13.820;2023-04-28T05:41:55;7.20;99.90
7842;DHT22;3966;51.052;13.820;2023-04-28T05:44:23;7.30;99.90
7842;DHT22;3966;51.052;13.820;2023-04-28T05:46:48;7.50;99.90
7842;DHT22;3966;51.052;13.820;2023-04-28T05:49:14;7.60;99.90
7842;DHT22;3966;51.052;13.820;2023-04-28T05:51:40;7.70;99.90
7842;DHT22;3966;51.052;13.820;2023-04-28T05:54:06;7.80;99.90
7842;DHT22;3966;51.052;13.820;2023-04-28T05:56:32;7.90;99.90
7842;DHT22;3966;51.052;13.820;2023-04-28T05:58:58;8.10;99.90
7842;DHT22;3966;51.052;13.820;2023-04-28T06:01:27;8.20;99.90
7842;DHT22;3966;51.052;13.820;2023-04-28T06:03:53;8.30;99.90
7842;DHT22;3966;51.052;13.820;2023-04-28T06:06:20;8.40;99.90
7842;DHT22;3966;51.052;13.820;2023-04-28T06:08:46;8.50;99.90
7842;DHT22;3966;51.052;13.820;2023-04-28T06:11:12;8.60;99.90
7842;DHT22;3966;51.052;13.820;2023-04-28T06:13:37;8.80;99.90
7842;DHT22;3966;51.052;13.820;2023-04-28T06:16:03;8.90;99.90
7842;DHT22;3966;51.052;13.820;2023-04-28T06:18:29;9.10;99.90
7842;DHT22;3966;51.052;13.820;2023-04-28T06:20:57;9.30;99.90
7842;DHT22;3966;51.052;13.820;2023-04-28T06:23:23;9.50;99.90
7842;DHT22;3966;51.052;13.820;2023-04-28T06:25:49;9.80;99.90
7842;DHT22;3966;51.052;13.820;2023-04-28T06:28:14;9.90;99.90
7842;DHT22;3966;51.052;13.820;2023-04-28T06:30:40;10.20;99.90
7842;DHT22;3966;51.052;13.820;2023-04-28T06:33:06;10.40;99.90
7842;DHT22;3966;51.052;13.820;2023-04-28T06:35:32;10.60;99.90
7842;DHT22;3966;51.052;13.820;2023-04-28T06:38:01;10.80;99.90
7842;DHT22;3966;51.052;13.820;2023-04-28T06:40:28;10.90;99.90
7842;DHT22;3966;51.052;13.820;2023-04-28T06:42:53;11.00;99.90
7842;DHT22;3966;51.052;13.820;2023-04-28T06:45:19;11.20;99.90
7842;DHT22;3966;51.052;13.820;2023-04-28T06:47:44;11.30;99.90
7842;DHT22;3966;51.052;13.820;2023-04-28T06:50:11;11.40;99.90
7842;DHT22;3966;51.052;13.820;2023-04-28T06:52:36;11.60;99.90
7842;DHT22;3966;51.052;13.820;2023-04-28T06:55:06;11.60;99.90
7842;DHT22;3966;51.052;13.820;2023-04-28T06:57:33;11.70;99.90
7842;DHT22;3966;51.052;13.820;2023-04-28T06:59:59;11.70;99.90
7842;DHT22;3966;51.052;13.820;2023-04-28T07:02:25;11.80;99.90
7842;DHT22;3966;51.052;13.820;2023-04-28T07:04:51;11.70;99.90
7842;DHT22;3966;51.052;13.820;2023-04-28T07:07:17;11.80;99.90
7842;DHT22;3966;51.052;13.820;2023-04-28T07:09:42;11.80;99.90
7842;DHT22;3966;51.052;13.820;2023-04-28T07:12:08;11.80;99.90
7842;DHT22;3966;51.052;13.820;2023-04-28T07:14:34;11.80;99.90
7842;DHT22;3966;51.052;13.820;2023-04-28T07:17:00;11.80;99.90
7842;DHT22;3966;51.052;13.820;2023-04-28T07:19:25;11.90;99.90
7842;DHT22;3966;51.052;13.820;2023-04-28T07:21:51;12.10;99.90
7842;DHT22;3966;51.052;13.820;2023-04-28T07:24:16;12.20;99.90
7842;DHT22;3966;51.052;13.820;2023-04-28T07:26:42;12.30;99.90
7842;DHT22;3966;51.052;13.820;2023-04-28T07:29:09;12.50;99.90
7842;DHT22;3966;51.052;13.820;2023-04-28T07:31:37;12.60;99.90
7842;DHT22;3966;51.052;13.820;2023-04-28T07:34:03;12.70;99.90
7842;DHT22;3966;51.052;13.820;2023-04-28T07:36:29;12.70;99.90
7842;DHT22;3966;51.052;13.820;2023-04-28T07:38:56;12.80;99.90
7842;DHT22;3966;51.052;13.820;2023-04-28T07:41:21;12.80;99.90
7842;DHT22;3966;51.052;13.820;2023-04-28T07:43:48;12.90;99.90
7842;DHT22;3966;51.052;13.820;2023-04-28T07:46:13;12.80;99.90
7842;DHT22;3966;51.052;13.820;2023-04-28T07:48:39;12.80;99.90
7842;DHT22;3966;51.052;13.820;2023-04-28T07:51:05;12.90;99.90
7842;DHT22;3966;51.052;13.820;2023-04-28T07:53:31;12.80;99.90
7842;DHT22;3966;51.052;13.820;2023-04-28T07:55:56;12.90;99.90
7842;DHT22;3966;51.052;13.820;2023-04-28T07:58:22;13.00;99.90
7842;DHT22;3966;51.052;13.820;2023-04-28T08:00:48;13.10;99.90
7842;DHT22;3966;51.052;13.820;2023-04-28T08:03:13;13.00;99.90
7842;DHT22;3966;51.052;13.820;2023-04-28T08:05:39;13.20;99.90
7842;DHT22;3966;51.052;13.820;2023-04-28T08:08:05;13.30;99.90
7842;DHT22;3966;51.052;13.820;2023-04-28T08:10:31;13.30;99.90
7842;DHT22;3966;51.052;13.820;2023-04-28T08:12:57;13.40;99.90
7842;DHT22;3966;51.052;13.820;2023-04-28T08:15:22;13.50;99.90
7842;DHT22;3966;51.052;13.820;2023-04-28T08:17:48;13.50;99.90
7842;DHT22;3966;51.052;13.820;2023-04-28T08:20:14;13.70;99.90
7842;DHT22;3966;51.052;13.820;2023-04-28T08:22:40;13.70;99.90
7842;DHT22;3966;51.052;13.820;2023-04-28T08:25:06;13.70;99.90
7842;DHT22;3966;51.052;13.820;2023-04-28T08:27:32;13.80;99.90
7842;DHT22;3966;51.052;13.820;2023-04-28T08:29:58;13.80;99.90
7842;DHT22;3966;51.052;13.820;2023-04-28T08:32:24;13.90;99.90
7842;DHT22;3966;51.052;13.820;2023-04-28T08:34:50;14.10;99.90
7842;DHT22;3966;51.052;13.820;2023-04-28T08:37:15;14.20;99.90
7842;DHT22;3966;51.052;13.820;2023-04-28T08:39:41;14.40;99.90
7842;DHT22;3966;51.052;13.820;2023-04-28T08:42:07;14.50;99.90
7842;DHT22;3966;51.052;13.820;2023-04-28T08:44:37;14.80;99.90
7842;DHT22;3966;51.052;13.820;2023-04-28T08:47:11;14.90;99.90
7842;DHT22;3966;51.052;13.820;2023-04-28T08:49:39;15.00;99.30
7842;DHT22;3966;51.052;13.820;2023-04-28T08:52:12;15.10;98.60
7842;DHT22;3966;51.052;13.820;2023-04-28T08:54:41;15.20;98.40
7842;DHT22;3966;51.052;13.820;2023-04-28T08:57:10;15.40;98.30
7842;DHT22;3966;51.052;13.820;2023-04-28T08:59:40;15.40;98.40
7842;DHT22;3966;51.052;13.820;2023-04-28T09:02:09;15.60;96.10
7842;DHT22;3966;51.052;13.820;2023-04-28T09:04:35;15.70;95.20
7842;DHT22;3966;51.052;13.820;2023-04-28T09:07:01;15.80;94.40
7842;DHT22;3966;51.052;13.820;2023-04-28T09:09:28;15.90;93.40
7842;DHT22;3966;51.052;13.820;2023-04-28T09:12:02;16.00;93.30
7842;DHT22;3966;51.052;13.820;2023-04-28T09:14:32;16.00;93.20
7842;DHT22;3966;51.052;13.820;2023-04-28T09:16:58;16.10;93.10
7842;DHT22;3966;51.052;13.820;2023-04-28T09:19:33;16.20;94.00
7842;DHT22;3966;51.052;13.820;2023-04-28T09:22:01;16.20;93.00
7842;DHT22;3966;51.052;13.820;2023-04-28T09:24:38;16.00;93.40
7842;DHT22;3966;51.052;13.820;2023-04-28T09:27:06;16.10;93.70
7842;DHT22;3966;51.052;13.820;2023-04-28T09:29:38;16.10;91.90
7842;DHT22;3966;51.052;13.820;2023-04-28T09:32:15;16.20;91.90
7842;DHT22;3966;51.052;13.820;2023-04-28T09:34:50;16.20;92.30
7842;DHT22;3966;51.052;13.820;2023-04-28T09:37:17;16.20;92.00
7842;DHT22;3966;51.052;13.820;2023-04-28T09:39:49;16.20;91.70
7842;DHT22;3966;51.052;13.820;2023-04-28T09:45:06;16.10;92.30
7842;DHT22;3966;51.052;13.820;2023-04-28T09:47:34;16.20;92.10
7842;DHT22;3966;51.052;13.820;2023-04-28T09:50:05;16.10;92.50
7842;DHT22;3966;51.052;13.820;2023-04-28T09:52:33;15.90;93.00
7842;DHT22;3966;51.052;13.820;2023-04-28T09:55:03;15.90;92.90
7842;DHT22;3966;51.052;13.820;2023-04-28T09:57:31;15.70;92.10
7842;DHT22;3966;51.052;13.820;2023-04-28T09:59:58;15.70;92.70
7842;DHT22;3966;51.052;13.820;2023-04-28T10:02:24;15.70;93.00
7842;DHT22;3966;51.052;13.820;2023-04-28T10:04:51;15.70;93.00
7842;DHT22;3966;51.052;13.820;2023-04-28T10:07:18;15.70;92.40
7842;DHT22;3966;51.052;13.820;2023-04-28T10:09:49;15.70;92.40
7842;DHT22;3966;51.052;13.820;2023-04-28T10:14:45;15.80;92.40
7842;DHT22;3966;51.052;13.820;2023-04-28T10:17:12;15.90;92.10
7842;DHT22;3966;51.052;13.820;2023-04-28T10:19:49;16.00;91.80
7842;DHT22;3966;51.052;13.820;2023-04-28T10:27:44;16.20;92.80
7842;DHT22;3966;51.052;13.820;2023-04-28T10:30:15;16.20;93.30
7842;DHT22;3966;51.052;13.820;2023-04-28T10:32:42;16.10;95.30
7842;DHT22;3966;51.052;13.820;2023-04-28T10:38:08;15.90;96.30
7842;DHT22;3966;51.052;13.820;2023-04-28T10:40:41;15.90;96.50
7842;DHT22;3966;51.052;13.820;2023-04-28T10:43:12;15.80;97.00
7842;DHT22;3966;51.052;13.820;2023-04-28T10:58:38;15.00;99.90
7842;DHT22;3966;51.052;13.820;2023-04-28T11:01:26;14.80;99.90
7842;DHT22;3966;51.052;13.820;2023-04-28T11:03:56;14.60;99.90
7842;DHT22;3966;51.052;13.820;2023-04-28T11:14:34;14.30;99.90
7842;DHT22;3966;51.052;13.820;2023-04-28T11:19:43;14.00;99.90
7842;DHT22;3966;51.052;13.820;2023-04-28T11:22:20;13.90;99.90
7842;DHT22;3966;51.052;13.820;2023-04-28T11:24:58;13.70;99.90
7842;DHT22;3966;51.052;13.820;2023-04-28T11:27:25;13.60;99.90
7842;DHT22;3966;51.052;13.820;2023-04-28T11:29:51;13.60;99.90
7842;DHT22;3966;51.052;13.820;2023-04-28T11:32:31;13.50;99.90
7842;DHT22;3966;51.052;13.820;2023-04-28T11:34:57;13.50;99.90
7842;DHT22;3966;51.052;13.820;2023-04-28T11:37:23;13.50;99.90
7842;DHT22;3966;51.052;13.820;2023-04-28T11:39:49;13.50;99.90
7842;DHT22;3966;51.052;13.820;2023-04-28T11:42:15;13.50;99.90
7842;DHT22;3966;51.052;13.820;2023-04-28T11:44:52;13.40;99.90
7842;DHT22;3966;51.052;13.820;2023-04-28T11:47:32;13.60;99.90
7842;DHT22;3966;51.052;13.820;2023-04-28T11:49:59;13.70;99.90
7842;DHT22;3966;51.052;13.820;2023-04-28T11:52:26;13.70;99.90
7842;DHT22;3966;51.052;13.820;2023-04-28T11:54:56;13.70;99.90
7842;DHT22;3966;51.052;13.820;2023-04-28T11:57:42;13.80;99.90
7842;DHT22;3966;51.052;13.820;2023-04-28T12:00:15;14.00;99.90
7842;DHT22;3966;51.052;13.820;2023-04-28T12:02:56;14.10;99.90
7842;DHT22;3966;51.052;13.820;2023-04-28T12:05:24;14.20;99.90
7842;DHT22;3966;51.052;13.820;2023-04-28T12:07:50;14.30;99.90
7842;DHT22;3966;51.052;13.820;2023-04-28T12:10:16;14.50;99.90
7842;DHT22;3966;51.052;13.820;2023-04-28T12:12:49;14.50;99.90
7842;DHT22;3966;51.052;13.820;2023-04-28T12:15:15;14.60;99.90
7842;DHT22;3966;51.052;13.820;2023-04-28T12:17:42;14.70;99.90
7842;DHT22;3966;51.052;13.820;2023-04-28T12:20:12;14.80;99.90
7842;DHT22;3966;51.052;13.820;2023-04-28T12:22:57;14.90;99.90
7842;DHT22;3966;51.052;13.820;2023-04-28T12:25:22;14.80;99.90
7842;DHT22;3966;51.052;13.820;2023-04-28T12:28:02;14.80;99.90
7842;DHT22;3966;51.052;13.820;2023-04-28T12:30:32;14.80;99.90
7842;DHT22;3966;51.052;13.820;2023-04-28T12:32:58;14.70;99.90
7842;DHT22;3966;51.052;13.820;2023-04-28T12:35:25;14.60;99.90
7842;DHT22;3966;51.052;13.820;2023-04-28T12:37:52;14.60;99.90
7842;DHT22;3966;51.052;13.820;2023-04-28T12:40:18;14.70;99.90
7842;DHT22;3966;51.052;13.820;2023-04-28T12:42:44;14.80;99.90
7842;DHT22;3966;51.052;13.820;2023-04-28T12:45:10;15.00;99.90
7842;DHT22;3966;51.052;13.820;2023-04-28T12:47:36;15.20;99.90
7842;DHT22;3966;51.052;13.820;2023-04-28T12:50:04;15.10;99.90
7842;DHT22;3966;51.052;13.820;2023-04-28T12:52:30;15.10;99.90
7842;DHT22;3966;51.052;13.820;2023-04-28T12:55:15;14.90;99.90
7842;DHT22;3966;51.052;13.820;2023-04-28T12:57:41;14.60;99.90
7842;DHT22;3966;51.052;13.820;2023-04-28T13:00:07;14.50;99.90
7842;DHT22;3966;51.052;13.820;2023-04-28T13:02:33;14.40;99.90
7842;DHT22;3966;51.052;13.820;2023-04-28T13:04:59;14.40;99.90
7842;DHT22;3966;51.052;13.820;2023-04-28T13:07:24;14.20;99.90
7842;DHT22;3966;51.052;13.820;2023-04-28T13:09:50;14.10;99.90
7842;DHT22;3966;51.052;13.820;2023-04-28T13:12:16;13.90;99.90
7842;DHT22;3966;51.052;13.820;2023-04-28T13:14:41;14.00;99.90
7842;DHT22;3966;51.052;13.820;2023-04-28T13:17:07;13.80;99.90
7842;DHT22;3966;51.052;13.820;2023-04-28T13:19:34;13.80;99.90
7842;DHT22;3966;51.052;13.820;2023-04-28T13:21:59;13.80;99.90
7842;DHT22;3966;51.052;13.820;2023-04-28T13:24:29;13.70;99.90
7842;DHT22;3966;51.052;13.820;2023-04-28T13:26:55;13.60;99.90
7842;DHT22;3966;51.052;13.820;2023-04-28T13:29:21;13.70;99.90
7842;DHT22;3966;51.052;13.820;2023-04-28T13:31:46;13.60;99.90
7842;DHT22;3966;51.052;13.820;2023-04-28T13:34:12;13.60;99.90
7842;DHT22;3966;51.052;13.820;2023-04-28T13:36:42;13.60;99.90
7842;DHT22;3966;51.052;13.820;2023-04-28T13:39:08;13.50;99.90
7842;DHT22;3966;51.052;13.820;2023-04-28T13:41:38;13.60;99.90
7842;DHT22;3966;51.052;13.820;2023-04-28T13:44:04;13.60;99.90
7842;DHT22;3966;51.052;13.820;2023-04-28T13:46:29;13.70;99.90
7842;DHT22;3966;51.052;13.820;2023-04-28T13:48:55;13.60;99.90
7842;DHT22;3966;51.052;13.820;2023-04-28T13:51:21;13.70;99.90
7842;DHT22;3966;51.052;13.820;2023-04-28T13:53:48;13.60;99.90
7842;DHT22;3966;51.052;13.820;2023-04-28T13:56:13;13.70;99.90
7842;DHT22;3966;51.052;13.820;2023-04-28T13:58:39;13.80;99.90
7842;DHT22;3966;51.052;13.820;2023-04-28T14:01:05;13.80;99.90
7842;DHT22;3966;51.052;13.820;2023-04-28T14:03:32;13.80;99.90
7842;DHT22;3966;51.052;13.820;2023-04-28T14:05:58;13.80;99.90
7842;DHT22;3966;51.052;13.820;2023-04-28T14:08:24;13.90;99.90
7842;DHT22;3966;51.052;13.820;2023-04-28T14:10:50;13.90;99.90
7842;DHT22;3966;51.052;13.820;2023-04-28T14:13:17;13.90;99.90
7842;DHT22;3966;51.052;13.820;2023-04-28T14:15:43;13.80;99.90
7842;DHT22;3966;51.052;13.820;2023-04-28T14:18:10;13.80;99.90
7842;DHT22;3966;51.052;13.820;2023-04-28T14:20:36;13.80;99.90
7842;DHT22;3966;51.052;13.820;2023-04-28T14:23:02;13.60;99.90
7842;DHT22;3966;51.052;13.820;2023-04-28T14:25:28;13.60;99.90
7842;DHT22;3966;51.052;13.820;2023-04-28T14:27:54;13.60;99.90
7842;DHT22;3966;51.052;13.820;2023-04-28T14:30:21;13.60;99.90
7842;DHT22;3966;51.052;13.820;2023-04-28T14:32:47;13.60;99.90
7842;DHT22;3966;51.052;13.820;2023-04-28T14:35:13;13.70;99.90
7842;DHT22;3966;51.052;13.820;2023-04-28T14:37:40;13.50;99.90
7842;DHT22;3966;51.052;13.820;2023-04-28T14:40:06;13.60;99.90
7842;DHT22;3966;51.052;13.820;2023-04-28T14:42:33;13.60;99.90
7842;DHT22;3966;51.052;13.820;2023-04-28T14:45:06;13.60;99.90
7842;DHT22;3966;51.052;13.820;2023-04-28T14:47:32;13.60;99.90
7842;DHT22;3966;51.052;13.820;2023-04-28T14:49:58;13.60;99.90
7842;DHT22;3966;51.052;13.820;2023-04-28T14:52:24;13.70;99.90
7842;DHT22;3966;51.052;13.820;2023-04-28T14:54:54;13.70;99.90
7842;DHT22;3966;51.052;13.820;2023-04-28T14:57:19;13.70;99.90
7842;DHT22;3966;51.052;13.820;2023-04-28T14:59:45;13.70;99.90
7842;DHT22;3966;51.052;13.820;2023-04-28T15:02:12;13.70;99.90
7842;DHT22;3966;51.052;13.820;2023-04-28T15:04:40;13.70;99.90
7842;DHT22;3966;51.052;13.820;2023-04-28T15:07:06;13.70;99.90
7842;DHT22;3966;51.052;13.820;2023-04-28T15:09:35;13.80;99.90
7842;DHT22;3966;51.052;13.820;2023-04-28T15:12:01;13.80;99.90
7842;DHT22;3966;51.052;13.820;2023-04-28T15:14:30;13.70;99.90
7842;DHT22;3966;51.052;13.820;2023-04-28T15:16:56;13.80;99.90
7842;DHT22;3966;51.052;13.820;2023-04-28T15:19:22;13.80;99.90
7842;DHT22;3966;51.052;13.820;2023-04-28T15:21:47;13.90;99.90
7842;DHT22;3966;51.052;13.820;2023-04-28T15:24:14;14.00;99.90
7842;DHT22;3966;51.052;13.820;2023-04-28T15:26:39;13.90;99.90
7842;DHT22;3966;51.052;13.820;2023-04-28T15:29:06;13.90;99.90
7842;DHT22;3966;51.052;13.820;2023-04-28T15:31:31;13.80;99.90
7842;DHT22;3966;51.052;13.820;2023-04-28T15:33:57;13.70;99.90
7842;DHT22;3966;51.052;13.820;2023-04-28T15:36:23;13.80;99.90
7842;DHT22;3966;51.052;13.820;2023-04-28T15:38:49;13.80;99.90
7842;DHT22;3966;51.052;13.820;2023-04-28T15:41:16;13.70;99.90
7842;DHT22;3966;51.052;13.820;2023-04-28T15:43:42;13.70;99.90
7842;DHT22;3966;51.052;13.820;2023-04-28T15:46:09;13.70;99.90
7842;DHT22;3966;51.052;13.820;2023-04-28T15:48:41;13.70;99.90
7842;DHT22;3966;51.052;13.820;2023-04-28T15:51:09;13.80;99.90
7842;DHT22;3966;51.052;13.820;2023-04-28T15:53:35;13.80;99.90
7842;DHT22;3966;51.052;13.820;2023-04-28T15:56:02;13.80;99.90
7842;DHT22;3966;51.052;13.820;2023-04-28T15:58:29;13.80;99.90
7842;DHT22;3966;51.052;13.820;2023-04-28T16:00:55;13.80;99.90
7842;DHT22;3966;51.052;13.820;2023-04-28T16:03:23;13.80;99.90
7842;DHT22;3966;51.052;13.820;2023-04-28T16:05:52;13.70;99.90
7842;DHT22;3966;51.052;13.820;2023-04-28T16:08:18;13.70;99.90
7842;DHT22;3966;51.052;13.820;2023-04-28T16:10:45;13.70;99.90
7842;DHT22;3966;51.052;13.820;2023-04-28T16:13:11;13.60;99.90
7842;DHT22;3966;51.052;13.820;2023-04-28T16:15:37;13.60;99.90
7842;DHT22;3966;51.052;13.820;2023-04-28T16:18:03;13.60;99.90
7842;DHT22;3966;51.052;13.820;2023-04-28T16:20:28;13.60;99.90
7842;DHT22;3966;51.052;13.820;2023-04-28T16:22:54;13.60;99.90
7842;DHT22;3966;51.052;13.820;2023-04-28T16:25:20;13.50;99.90
7842;DHT22;3966;51.052;13.820;2023-04-28T16:27:46;13.40;99.90